Time;durP1;ratioP1;P1;durP2;ratioP2;P2;SDS_P1;SDS_P2;PMS_P1;PMS_P2;Temp;Humidity;BMP_temperature;BMP_pressure;BME280_temperature;BME280_humidity;BME280_pressure;Samples;Min_cycle;Max_cycle;Signal;HPM_P1;HPM_P2
2022/05/12 00:00:55;;;;;;;4.20;2.83;;;20.00;51.80;;;19.10;52.01;95926.19;4879622;28;20289;-67
2022/05/12 00:03:20;;;;;;;4.47;2.92;;;19.80;52.10;;;19.04;51.42;95921.88;4834685;28;20437;-67
2022/05/12 00:05:47;;;;;;;4.95;3.25;;;19.80;52.40;;;18.95;51.36;95916.13;4836017;28;20708;-67
2022/05/12 00:08:13;;;;;;;4.32;3.28;;;19.70;52.60;;;18.87;51.88;95916.56;4857933;28;20353;-67
2022/05/12 00:10:40;;;;;;;5.22;3.38;;;19.60;52.90;;;18.81;52.76;95913.03;4852817;28;20452;-67
2022/05/12 00:13:06;;;;;;;4.13;3.00;;;19.60;52.90;;;18.73;53.34;95916.09;4853485;28;20495;-66
2022/05/12 00:15:33;;;;;;;4.80;3.10;;;19.50;53.20;;;18.67;52.54;95912.53;4854193;28;20308;-67
2022/05/12 00:18:04;;;;;;;5.60;3.15;;;19.50;53.40;;;18.63;52.75;95921.28;4840813;28;20429;-67
2022/05/12 00:20:31;;;;;;;3.22;2.92;;;19.40;53.60;;;18.55;53.18;95919.78;4884834;28;20416;-67
2022/05/12 00:23:15;;;;;;;4.68;3.40;;;19.40;53.80;;;18.51;53.95;95918.66;4850003;28;20437;-67
2022/05/12 00:25:42;;;;;;;4.95;2.90;;;19.30;53.90;;;18.46;53.29;95915.91;4847352;28;20468;-67
2022/05/12 00:28:08;;;;;;;4.38;2.90;;;19.30;54.00;;;18.42;53.30;95914.78;4867828;28;20775;-67
2022/05/12 00:30:34;;;;;;;4.97;3.03;;;19.20;54.10;;;18.39;53.55;95914.47;4852383;28;20319;-67
2022/05/12 00:33:01;;;;;;;4.72;3.10;;;19.20;54.30;;;18.35;54.05;95914.16;4871636;28;20272;-67
2022/05/12 00:35:27;;;;;;;4.28;3.42;;;19.20;54.20;;;18.33;54.29;95918.91;4871657;28;20697;-67
2022/05/12 00:37:53;;;;;;;4.20;3.17;;;19.10;54.30;;;18.32;53.79;95918.09;4836324;28;20472;-67
2022/05/12 00:40:19;;;;;;;8.45;3.70;;;19.20;54.40;;;18.29;53.99;95913.25;4880607;28;20361;-67
2022/05/12 00:42:59;;;;;;;5.22;3.40;;;19.10;54.40;;;18.28;55.44;95924.16;4832368;28;20335;-67
2022/05/12 00:45:28;;;;;;;4.47;3.38;;;19.10;54.50;;;18.25;54.29;95921.97;4849030;28;20565;-67
2022/05/12 00:47:54;;;;;;;5.43;3.30;;;19.10;54.60;;;18.23;55.04;95916.88;4832540;28;20356;-67
2022/05/12 00:50:23;;;;;;;5.72;3.50;;;19.10;54.70;;;18.19;55.23;95914.94;4866924;28;20324;-67
2022/05/12 00:52:50;;;;;;;5.65;3.35;;;19.00;54.90;;;18.15;54.98;95913.81;4873066;28;20509;-67
2022/05/12 00:55:21;;;;;;;4.82;3.33;;;19.00;55.00;;;18.11;55.51;95924.16;4881387;28;20625;-67
2022/05/12 00:57:50;;;;;;;5.63;3.58;;;18.90;55.20;;;18.08;55.53;95921.94;4844987;28;20349;-68
2022/05/12 01:00:16;;;;;;;8.65;3.55;;;18.90;55.30;;;18.03;55.36;95920.00;4843029;28;20389;-67
2022/05/12 01:02:44;;;;;;;5.90;3.28;;;18.90;55.40;;;17.99;55.50;95924.19;4853272;28;20362;-67
2022/05/12 01:05:10;;;;;;;5.82;3.58;;;18.80;55.40;;;17.96;55.76;95918.56;4825992;28;20248;-67
2022/05/12 01:07:36;;;;;;;5.30;3.03;;;18.80;55.60;;;17.92;55.56;95920.91;4852428;28;20362;-67
2022/05/12 01:10:03;;;;;;;5.65;3.28;;;18.70;55.60;;;17.91;55.76;95921.13;4832024;28;20612;-67
2022/05/12 01:12:30;;;;;;;4.20;3.17;;;18.70;55.50;;;17.87;55.72;95918.13;4868619;28;20345;-67
2022/05/12 01:14:56;;;;;;;5.68;3.45;;;18.70;55.50;;;17.88;55.80;95924.25;4868258;28;20364;-67
2022/05/12 01:17:24;;;;;;;3.88;2.90;;;18.80;55.30;;;17.87;55.79;95927.94;4849311;28;20417;-67
2022/05/12 01:19:51;;;;;;;6.45;3.55;;;18.80;55.10;;;17.86;55.17;95926.34;4822589;28;20360;-67
2022/05/12 01:23:12;;;;;;;4.70;3.10;;;18.80;55.10;;;17.88;56.14;95925.09;4848893;28;20517;-67
2022/05/12 01:25:38;;;;;;;6.38;3.42;;;18.80;55.10;;;17.84;55.29;95923.13;4879970;28;20655;-68
2022/05/12 01:28:05;;;;;;;3.15;2.80;;;18.80;55.20;;;17.84;55.96;95931.09;4836240;28;20213;-67
2022/05/12 01:30:31;;;;;;;6.78;3.22;;;18.80;55.20;;;17.82;55.80;95920.69;4884165;28;20438;-67
2022/05/12 01:32:57;;;;;;;6.50;3.60;;;18.70;55.00;;;17.85;55.29;95935.38;4871756;28;20345;-67
2022/05/12 01:35:24;;;;;;;5.32;2.83;;;18.80;54.90;;;17.85;55.82;95924.72;4836107;28;20860;-68
2022/05/12 01:37:50;;;;;;;6.07;3.30;;;18.80;54.90;;;17.84;55.76;95928.44;4850200;28;20477;-68
2022/05/12 01:40:20;;;;;;;4.32;2.78;;;18.70;54.70;;;17.84;55.85;95925.78;4875336;28;20038;-67
2022/05/12 01:42:47;;;;;;;3.30;3.00;;;18.80;54.60;;;17.83;55.86;95924.97;4883703;28;20689;-68
2022/05/12 01:45:13;;;;;;;5.40;2.90;;;18.80;54.70;;;17.85;55.63;95932.72;4838654;28;20400;-68
2022/05/12 01:47:40;;;;;;;5.88;3.33;;;18.80;54.60;;;17.86;55.18;95924.47;4854232;28;20316;-68
2022/05/12 01:50:07;;;;;;;9.10;3.30;;;18.80;54.40;;;17.87;55.46;95927.94;4834837;28;20351;-68
2022/05/12 01:52:33;;;;;;;5.53;3.40;;;18.80;54.20;;;17.87;55.04;95935.94;4852242;28;20289;-67
2022/05/12 01:54:59;;;;;;;4.15;3.20;;;18.80;54.10;;;17.88;55.57;95933.06;4858279;28;20386;-67
2022/05/12 01:57:25;;;;;;;4.72;3.33;;;18.90;54.10;;;17.88;54.96;95930.41;4872345;28;20320;-68
2022/05/12 01:59:51;;;;;;;4.00;3.30;;;18.80;54.10;;;17.90;55.50;95933.63;4864325;28;20320;-67
2022/05/12 02:02:17;;;;;;;4.25;2.83;;;18.90;54.10;;;17.93;54.69;95932.34;4862204;28;20557;-68
2022/05/12 02:04:43;;;;;;;4.35;3.05;;;18.90;54.00;;;17.94;54.83;95939.28;4867155;28;20341;-68
2022/05/12 02:07:09;;;;;;;5.53;2.80;;;18.90;53.70;;;17.94;54.83;95929.44;4896387;28;20466;-68
2022/05/12 02:09:36;;;;;;;3.72;3.15;;;19.00;53.30;;;17.96;54.41;95937.19;4864133;28;20290;-68
2022/05/12 02:12:02;;;;;;;5.07;2.92;;;19.00;53.10;;;17.98;54.69;95924.44;4870242;28;20340;-68
2022/05/12 02:14:28;;;;;;;4.63;2.65;;;19.00;52.90;;;18.01;54.08;95930.09;4863131;28;20346;-68
2022/05/12 02:16:54;;;;;;;6.28;2.88;;;19.00;52.80;;;18.04;53.87;95928.81;4840264;28;20320;-67
2022/05/12 02:19:20;;;;;;;4.78;2.90;;;19.10;52.70;;;18.08;53.45;95929.13;4864312;28;20361;-67
2022/05/12 02:21:46;;;;;;;5.78;2.95;;;19.10;52.20;;;18.11;54.23;95931.34;4841585;28;20911;-67
2022/05/12 02:24:12;;;;;;;3.70;3.03;;;19.10;52.30;;;18.13;53.79;95935.38;4852641;28;20557;-67
2022/05/12 02:26:38;;;;;;;5.10;2.80;;;19.20;52.30;;;18.16;53.36;95937.53;4852655;28;20530;-67
2022/05/12 02:29:04;;;;;;;3.83;2.60;;;19.20;52.20;;;18.19;54.00;95939.72;4861055;28;20878;-67
2022/05/12 02:31:30;;;;;;;6.05;2.88;;;19.20;52.20;;;18.22;53.51;95936.56;4867447;28;20349;-67
2022/05/12 02:34:00;;;;;;;5.13;2.70;;;19.30;52.20;;;18.26;54.15;95942.22;4867748;28;20431;-69
2022/05/12 02:36:26;;;;;;;8.75;5.88;;;19.30;52.00;;;18.27;53.19;95949.16;4859194;28;20344;-67
2022/05/12 02:38:53;;;;;;;5.32;3.60;;;19.30;52.30;;;18.29;52.81;95958.50;4869816;28;20878;-68
2022/05/12 02:41:19;;;;;;;7.43;4.80;;;19.30;52.20;;;18.31;54.03;95952.94;4854628;28;20038;-67
2022/05/12 02:43:45;;;;;;;18.92;14.73;;;19.30;52.40;;;18.33;54.24;95958.84;4859417;28;20348;-68
2022/05/12 02:46:12;;;;;;;25.40;20.38;;;19.40;53.00;;;18.38;54.86;95960.81;4835451;28;20457;-67
2022/05/12 02:48:43;;;;;;;9.93;8.02;;;19.50;53.70;;;18.37;55.38;95960.00;4871521;28;20285;-71
2022/05/12 02:51:10;;;;;;;13.38;10.02;;;19.40;54.10;;;18.35;55.45;95962.09;4877976;28;20443;-70
2022/05/12 02:53:36;;;;;;;11.63;8.70;;;19.40;54.30;;;18.32;55.52;95959.88;4855250;28;20443;-68
2022/05/12 02:56:03;;;;;;;7.63;6.90;;;19.30;54.50;;;18.31;55.96;95963.59;4882525;28;20557;-70
2022/05/12 02:58:29;;;;;;;6.22;4.63;;;19.30;54.50;;;18.27;55.46;95963.28;4868039;28;20321;-68
2022/05/12 03:00:55;;;;;;;8.23;6.10;;;19.30;54.40;;;18.22;55.99;95957.88;4854950;28;20501;-69
2022/05/12 03:03:21;;;;;;;8.48;5.50;;;19.30;54.50;;;18.24;55.39;95966.44;4837610;28;20415;-68
2022/05/12 03:05:49;;;;;;;9.50;6.95;;;19.30;54.70;;;18.21;56.29;95971.44;4834259;28;20650;-69
2022/05/12 03:08:15;;;;;;;10.38;7.45;;;19.30;54.80;;;18.19;56.32;95974.34;4859589;28;20300;-69
2022/05/12 03:10:41;;;;;;;7.70;5.55;;;19.20;55.00;;;18.16;55.83;95982.78;4868784;28;20766;-66
2022/05/12 03:13:07;;;;;;;6.00;3.65;;;19.20;54.90;;;18.14;56.25;95982.22;4872543;28;20545;-68
2022/05/12 03:15:33;;;;;;;27.02;22.15;;;19.10;54.40;;;18.12;55.42;95988.84;4850374;28;20572;-67
2022/05/12 03:17:59;;;;;;;19.08;15.25;;;19.10;54.40;;;18.09;55.53;95990.09;4866095;28;20492;-67
2022/05/12 03:20:26;;;;;;;6.72;5.25;;;19.10;54.50;;;18.06;55.83;95990.59;4860208;28;20436;-67
2022/05/12 03:22:53;;;;;;;4.90;3.60;;;19.10;54.20;;;18.05;55.25;95983.66;4834822;28;20395;-68
2022/05/12 03:25:19;;;;;;;6.15;3.17;;;19.10;54.00;;;18.05;55.34;95994.28;4837417;28;20400;-68
2022/05/12 03:27:46;;;;;;;6.20;2.88;;;19.10;54.30;;;18.03;55.84;95993.72;4852132;28;20443;-67
2022/05/12 03:30:16;;;;;;;6.15;3.50;;;19.10;54.10;;;18.04;55.49;96003.31;4864957;28;20352;-67
2022/05/12 03:32:42;;;;;;;3.97;2.75;;;19.10;54.30;;;18.04;55.51;95995.34;4852466;28;20536;-67
2022/05/12 03:35:09;;;;;;;4.05;2.90;;;19.00;54.40;;;18.02;55.61;95992.13;4853374;28;20376;-67
2022/05/12 03:37:36;;;;;;;4.38;3.03;;;19.00;53.70;;;18.00;55.35;95996.88;4868365;28;20376;-67
2022/05/12 03:40:04;;;;;;;4.80;2.95;;;19.00;54.10;;;17.99;55.51;95992.59;4872956;28;20902;-66
2022/05/12 03:42:30;;;;;;;5.78;3.63;;;19.00;54.00;;;17.98;55.31;96005.09;4868332;28;20408;-67
2022/05/12 03:44:59;;;;;;;5.32;3.03;;;19.00;54.30;;;17.96;56.10;96001.88;4863207;28;20356;-67
2022/05/12 03:47:33;;;;;;;5.25;2.60;;;19.00;54.30;;;17.96;55.85;96009.03;4849897;28;20350;-68
2022/05/12 03:50:04;;;;;;;4.43;2.80;;;19.00;54.20;;;17.93;56.24;96007.66;4850467;28;20524;-67
2022/05/12 03:52:31;;;;;;;5.97;4.05;;;18.90;54.10;;;17.93;55.59;96017.50;4862019;28;20369;-66
2022/05/12 03:54:57;;;;;;;10.57;8.77;;;19.00;54.20;;;17.95;56.04;96016.22;4906198;28;20046;-68
2022/05/12 03:57:23;;;;;;;5.80;4.63;;;19.00;54.40;;;17.94;55.90;96021.78;4959726;28;20049;-65
2022/05/12 03:59:50;;;;;;;6.32;4.55;;;19.00;54.20;;;17.96;55.81;96020.50;4986619;28;20061;-66
2022/05/12 04:02:16;;;;;;;4.57;3.00;;;19.00;54.50;;;17.97;55.63;96030.09;4987068;28;20066;-66
2022/05/12 04:04:43;;;;;;;4.88;2.60;;;19.00;54.10;;;17.96;55.63;96028.47;4970493;28;20042;-66
2022/05/12 04:07:09;;;;;;;6.85;2.70;;;19.00;54.00;;;17.98;56.29;96028.25;4986532;28;20030;-65
2022/05/12 04:09:35;;;;;;;4.97;2.50;;;19.10;54.30;;;18.01;55.62;96033.09;4971386;28;20034;-66
2022/05/12 04:12:02;;;;;;;5.35;2.53;;;19.10;53.90;;;18.00;55.97;96034.94;4970868;28;20120;-65
2022/05/12 04:14:28;;;;;;;3.75;2.33;;;19.10;54.20;;;18.02;55.02;96032.03;4952632;28;20524;-65
2022/05/12 04:16:54;;;;;;;6.28;2.80;;;19.10;53.30;;;18.03;54.92;96042.44;4986345;28;20053;-65
2022/05/12 04:19:19;;;;;;;5.43;2.28;;;19.10;53.50;;;18.04;55.44;96035.25;4970696;28;20064;-65
2022/05/12 04:21:45;;;;;;;6.25;2.60;;;19.10;53.20;;;18.08;55.46;96044.38;4970104;28;20171;-66
2022/05/12 04:24:11;;;;;;;4.75;2.72;;;19.20;53.60;;;18.11;55.54;96043.94;4952779;28;20568;-66
2022/05/12 04:26:38;;;;;;;8.18;2.65;;;19.30;53.70;;;18.14;55.46;96051.44;4971496;28;20396;-65
2022/05/12 04:29:04;;;;;;;3.95;2.60;;;19.30;53.30;;;18.20;54.66;96053.16;4949646;28;20050;-64
2022/05/12 04:31:31;;;;;;;3.55;2.30;;;19.40;52.90;;;18.25;54.93;96068.41;4974123;28;20493;-65
2022/05/12 04:36:41;;;;;;;4.25;2.60;;;19.60;53.30;;;18.32;55.00;96069.88;4992143;28;20091;-64
2022/05/12 04:39:08;;;;;;;4.22;2.97;;;19.60;53.40;;;18.39;55.48;96075.06;4974974;28;20057;-64
2022/05/12 04:41:34;;;;;;;4.95;3.00;;;19.70;53.90;;;18.41;55.65;96080.97;4990511;28;20141;-64
2022/05/12 04:44:00;;;;;;;4.72;2.40;;;19.70;53.40;;;18.46;55.13;96077.59;4989413;28;20072;-64
2022/05/12 04:46:26;;;;;;;9.25;2.70;;;19.70;52.80;;;18.49;55.72;96077.09;4956616;28;20038;-64
2022/05/12 04:48:52;;;;;;;6.80;4.63;;;19.70;53.40;;;18.50;55.81;96081.38;4990370;28;20038;-65
2022/05/12 04:51:19;;;;;;;9.13;7.75;;;19.80;53.40;;;18.53;55.80;96086.22;4958291;28;20100;-65
2022/05/12 04:53:45;;;;;;;7.85;4.60;;;19.80;53.40;;;18.56;56.00;96086.59;4941599;28;20090;-65
2022/05/12 04:56:11;;;;;;;4.95;3.13;;;19.90;53.30;;;18.60;55.31;96084.25;4988326;28;20060;-64
2022/05/12 04:58:37;;;;;;;7.82;2.65;;;20.00;52.70;;;18.65;54.91;96085.16;4990385;28;20096;-65
2022/05/12 05:01:03;;;;;;;8.60;2.72;;;20.10;52.90;;;18.70;55.43;96094.28;4974176;28;20891;-65
2022/05/12 05:03:28;;;;;;;4.22;2.70;;;20.00;52.90;;;18.76;55.37;96096.00;4957012;28;20133;-65
2022/05/12 05:05:54;;;;;;;5.07;2.60;;;20.10;52.70;;;18.81;55.54;96104.91;4970778;28;20030;-65
2022/05/12 05:08:21;;;;;;;6.10;2.47;;;20.20;51.90;;;18.86;54.82;96104.19;4941991;28;20034;-64
2022/05/12 05:10:48;;;;;;;6.40;2.42;;;20.20;52.00;;;18.88;54.82;96104.75;4973605;28;20367;-64
2022/05/12 05:13:14;;;;;;;3.35;2.10;;;20.20;51.70;;;18.94;55.36;96109.91;4942125;28;20064;-65
2022/05/12 05:15:40;;;;;;;2.97;2.35;;;20.30;51.90;;;19.00;54.77;96118.78;4987991;28;20497;-65
2022/05/12 05:18:12;;;;;;;3.45;2.10;;;20.30;51.90;;;19.06;54.21;96117.84;4981138;28;20042;-65
2022/05/12 05:20:38;;;;;;;5.10;2.30;;;20.50;51.80;;;19.14;54.95;96119.28;4975188;28;20109;-64
2022/05/12 05:23:04;;;;;;;4.07;2.03;;;20.60;51.70;;;19.20;54.44;96123.66;4974273;28;20076;-65
2022/05/12 05:25:31;;;;;;;5.82;2.40;;;20.60;50.90;;;19.23;53.78;96123.97;4947770;28;20038;-65
2022/05/12 05:27:57;;;;;;;5.93;2.42;;;20.70;51.10;;;19.36;54.42;96132.72;4972876;28;20034;-64
2022/05/12 05:30:24;;;;;;;6.43;2.53;;;20.80;50.30;;;19.44;54.64;96135.75;4952431;28;20030;-65
2022/05/12 05:32:50;;;;;;;4.43;2.17;;;20.90;50.30;;;19.52;52.94;96148.72;4985818;28;20143;-64
2022/05/12 05:35:16;;;;;;;5.07;1.98;;;21.00;50.00;;;19.58;53.09;96146.94;4988326;28;20026;-65
2022/05/12 05:37:42;;;;;;;4.47;2.42;;;21.10;49.50;;;19.66;53.75;96157.22;4956800;28;20493;-64
2022/05/12 05:40:10;;;;;;;3.13;2.13;;;21.10;49.50;;;19.71;52.75;96161.84;4972491;28;20030;-65
2022/05/12 05:42:38;;;;;;;3.72;2.63;;;21.20;49.20;;;19.77;52.70;96150.16;4973168;28;20033;-65
2022/05/12 05:45:10;;;;;;;4.57;2.17;;;21.30;49.40;;;19.84;51.78;96161.47;4947763;28;20053;-64
2022/05/12 05:47:40;;;;;;;3.83;2.20;;;21.40;48.40;;;19.91;52.95;96162.09;4985392;28;20038;-65
2022/05/12 05:50:09;;;;;;;4.20;2.22;;;21.50;48.50;;;19.97;51.26;96171.00;4971797;28;20312;-64
2022/05/12 05:55:20;;;;;;;4.70;2.10;;;21.50;47.60;;;20.04;51.76;96172.44;4964159;28;20041;-64
2022/05/12 05:57:46;;;;;;;5.25;2.10;;;21.50;48.20;;;20.10;50.95;96175.97;4953239;28;20050;-64
2022/05/12 06:00:12;;;;;;;8.52;2.13;;;21.60;47.50;;;20.16;51.12;96183.81;4972347;28;20385;-65
2022/05/12 06:02:38;;;;;;;4.45;2.33;;;21.70;47.40;;;20.23;50.83;96186.31;4957075;28;20034;-65
2022/05/12 06:05:08;;;;;;;3.10;2.05;;;21.80;47.00;;;20.27;49.78;96186.63;4988055;28;20065;-65
2022/05/12 06:07:38;;;;;;;5.35;2.17;;;21.80;46.80;;;20.34;50.50;96196.06;4989071;28;20030;-65
2022/05/12 06:10:06;;;;;;;2.28;1.83;;;22.00;46.90;;;20.43;50.37;96197.28;4971312;28;20038;-66
2022/05/12 06:12:33;;;;;;;3.38;1.90;;;22.10;47.50;;;20.52;50.18;96199.50;4972725;28;20375;-65
2022/05/12 06:14:59;;;;;;;4.47;2.10;;;22.20;46.80;;;20.59;50.50;96200.13;4955776;28;20451;-65
2022/05/12 06:17:26;;;;;;;6.25;2.10;;;22.30;46.40;;;20.67;50.02;96208.53;4972526;28;20049;-65
2022/05/12 06:19:52;;;;;;;3.20;1.85;;;22.40;46.80;;;20.73;51.08;96210.19;4972175;28;20041;-65
2022/05/12 06:22:19;;;;;;;4.13;2.30;;;22.50;46.40;;;20.84;49.74;96215.66;5004785;28;20107;-66
2022/05/12 06:24:47;;;;;;;5.65;2.10;;;22.60;45.90;;;20.90;49.28;96212.78;4953047;28;20100;-65
2022/05/12 06:27:19;;;;;;;5.63;2.08;;;22.60;45.70;;;20.99;49.76;96211.28;4971745;28;20034;-65
2022/05/12 06:29:45;;;;;;;3.08;1.85;;;22.90;45.00;;;21.16;49.94;96213.84;4973463;28;20572;-65
2022/05/12 06:32:11;;;;;;;3.15;1.98;;;23.30;45.10;;;21.32;49.45;96210.31;4987255;28;20084;-63
2022/05/12 06:34:37;;;;;;;5.53;2.30;;;23.50;44.70;;;21.46;49.35;96199.97;4970665;28;20038;-63
2022/05/12 06:37:04;;;;;;;4.25;2.13;;;23.50;44.10;;;21.59;48.29;96215.63;4967942;28;20038;-63
2022/05/12 06:39:30;;;;;;;4.75;2.00;;;23.60;43.80;;;21.71;48.66;96224.25;4952654;28;20039;-64
2022/05/12 06:41:56;;;;;;;6.68;2.30;;;23.80;43.80;;;21.87;48.71;96227.88;4952235;28;20077;-63
2022/05/12 06:44:22;;;;;;;3.33;2.00;;;24.10;44.30;;;22.00;47.68;96229.31;4951879;28;20026;-63
2022/05/12 06:46:48;;;;;;;3.55;1.90;;;24.10;42.40;;;22.09;48.00;96224.28;4954796;28;20041;-63
2022/05/12 06:49:14;;;;;;;6.00;2.25;;;24.10;42.40;;;22.17;47.41;96221.94;4954848;28;20030;-63
2022/05/12 06:51:40;;;;;;;7.70;2.15;;;24.20;42.80;;;22.24;48.04;96222.53;4955840;28;20051;-63
2022/05/12 06:54:06;;;;;;;5.00;2.00;;;24.30;44.20;;;22.29;48.09;96227.09;4987370;28;20505;-63
2022/05/12 06:56:32;;;;;;;5.97;2.20;;;24.40;43.80;;;22.36;48.08;96230.34;4971666;28;20378;-63
2022/05/12 06:58:58;;;;;;;7.13;2.63;;;24.50;43.00;;;22.45;47.13;96234.16;4970296;28;20476;-63
2022/05/12 07:01:24;;;;;;;6.65;2.30;;;24.60;41.90;;;22.54;46.99;96226.41;4971459;28;20026;-64
2022/05/12 07:03:50;;;;;;;11.02;2.50;;;25.10;41.30;;;22.70;46.74;96224.63;4957914;28;20034;-63
2022/05/12 07:06:16;;;;;;;9.65;2.13;;;25.40;41.50;;;22.86;46.49;96231.69;4986948;28;20026;-63
2022/05/12 07:08:42;;;;;;;6.95;2.22;;;25.70;40.10;;;23.03;46.17;96228.75;4955658;28;20374;-64
2022/05/12 07:11:12;;;;;;;4.63;1.80;;;26.00;39.20;;;23.26;45.10;96233.66;4987644;28;20079;-63
2022/05/12 07:13:38;;;;;;;15.00;4.70;;;26.40;39.00;;;23.52;45.97;96226.44;4987925;28;20127;-64
2022/05/12 07:16:04;;;;;;;19.77;6.88;;;26.70;39.40;;;23.83;46.41;96238.84;4972674;28;20101;-63
2022/05/12 07:18:31;;;;;;;12.25;4.85;;;27.20;38.60;;;24.13;45.04;96231.81;4971268;28;20129;-64
2022/05/12 07:26:35;;;;;;;5.88;2.13;;;26.60;37.40;;;24.42;42.92;96242.78;4989001;28;20041;-64
2022/05/12 07:29:06;;;;;;;4.07;2.10;;;26.50;38.30;;;24.45;42.46;96244.97;4972148;28;20786;-64
2022/05/12 07:31:32;;;;;;;7.35;2.30;;;26.70;37.50;;;24.55;42.42;96252.19;4971982;28;20060;-64
2022/05/12 07:33:58;;;;;;;7.10;2.20;;;26.90;37.40;;;24.60;42.30;96260.22;4954093;28;20720;-64
2022/05/12 07:36:27;;;;;;;7.53;2.40;;;26.50;37.00;;;24.59;41.64;96245.16;4945450;28;20187;-64
2022/05/12 07:38:55;;;;;;;5.25;1.88;;;26.50;37.20;;;24.59;41.94;96247.84;4966357;28;20034;-64
2022/05/12 07:41:21;;;;;;;5.47;2.20;;;26.60;38.20;;;24.65;41.87;96247.56;4936376;28;20409;-65
2022/05/12 07:43:47;;;;;;;6.13;1.85;;;27.20;37.30;;;24.87;42.19;96247.19;4954148;28;20057;-64
2022/05/12 07:46:15;;;;;;;6.03;2.22;;;27.70;36.40;;;25.17;42.46;96248.19;5003300;28;20249;-65
2022/05/12 07:48:41;;;;;;;5.60;2.30;;;28.30;36.50;;;25.46;41.63;96249.06;4955627;28;20022;-64
2022/05/12 07:51:07;;;;;;;3.72;2.13;;;28.60;35.50;;;25.80;41.34;96243.75;4987421;28;20425;-64
2022/05/12 07:53:33;;;;;;;3.65;2.08;;;28.90;34.80;;;26.10;40.92;96242.66;4971267;28;20068;-64
2022/05/12 07:55:59;;;;;;;3.30;2.13;;;29.20;34.10;;;26.41;40.38;96237.00;4967327;28;20038;-64
2022/05/12 07:58:25;;;;;;;8.73;1.95;;;29.50;33.90;;;26.65;39.49;96227.00;4987482;28;20030;-64
2022/05/12 08:00:53;;;;;;;3.85;1.60;;;29.60;33.30;;;26.95;39.01;96233.13;4971726;28;20048;-65
2022/05/12 08:03:19;;;;;;;4.13;1.80;;;29.90;32.90;;;27.23;38.26;96243.03;4959884;28;20034;-64
2022/05/12 08:05:45;;;;;;;8.02;1.90;;;29.90;31.50;;;27.38;37.11;96242.78;4974372;28;20120;-64
2022/05/12 08:08:11;;;;;;;3.63;1.90;;;30.10;31.20;;;27.40;36.84;96248.75;4978970;28;20133;-64
2022/05/12 08:10:37;;;;;;;2.65;1.65;;;29.90;31.30;;;27.48;36.83;96241.84;4974797;28;20026;-65
2022/05/12 08:13:03;;;;;;;4.97;1.80;;;30.10;31.70;;;27.57;36.39;96242.78;4975015;28;20061;-66
2022/05/12 08:15:28;;;;;;;4.80;2.40;;;30.10;31.20;;;27.68;36.59;96248.88;4989015;28;20432;-64
2022/05/12 08:17:56;;;;;;;8.48;2.00;;;30.40;30.80;;;27.84;36.04;96236.75;4973859;28;20124;-64
2022/05/12 08:20:22;;;;;;;5.60;1.83;;;30.50;31.00;;;28.00;35.88;96243.47;4958835;28;20030;-65
2022/05/12 08:22:48;;;;;;;4.72;1.75;;;30.70;31.30;;;28.19;35.64;96238.03;4974290;28;20034;-65
2022/05/12 08:25:14;;;;;;;6.25;1.80;;;30.80;30.90;;;28.35;35.69;96246.72;4957188;28;20042;-65
2022/05/12 08:27:40;;;;;;;6.35;2.60;;;30.80;30.40;;;28.50;35.42;96249.09;4989579;28;20621;-64
2022/05/12 08:30:08;;;;;;;6.47;1.92;;;30.90;30.50;;;28.68;34.93;96240.09;4965658;28;20133;-65
2022/05/12 08:32:34;;;;;;;3.40;1.73;;;31.30;31.40;;;28.88;35.55;96241.63;4974913;28;20030;-65
2022/05/12 08:35:00;;;;;;;3.80;1.98;;;31.60;30.50;;;29.10;35.02;96251.72;4941329;28;20038;-65
2022/05/12 08:37:26;;;;;;;7.95;2.00;;;31.90;30.20;;;29.27;34.90;96249.19;4990350;28;20536;-65
2022/05/12 08:39:52;;;;;;;4.78;1.98;;;32.10;30.40;;;29.47;34.80;96255.31;4966865;28;20038;-64
2022/05/12 08:42:38;;;;;;;3.90;1.80;;;32.10;30.10;;;29.62;33.58;96260.34;4977332;28;20049;-64
2022/05/12 08:45:06;;;;;;;4.07;2.10;;;32.10;29.50;;;29.75;34.56;96256.81;4973143;28;20121;-64
2022/05/12 08:47:35;;;;;;;5.28;2.08;;;32.40;30.20;;;29.90;34.03;96246.72;4973177;28;20034;-65
2022/05/12 08:50:01;;;;;;;3.90;1.88;;;32.60;29.70;;;29.95;33.88;96252.00;4973856;28;20064;-65
2022/05/12 08:52:48;;;;;;;4.75;2.20;;;32.40;29.50;;;29.97;32.81;96253.28;4989223;28;20075;-64
2022/05/12 08:55:31;;;;;;;5.05;2.05;;;32.30;29.00;;;30.03;33.31;96256.69;4975354;28;20042;-64
2022/05/12 08:58:25;;;;;;;4.00;2.00;;;32.60;29.10;;;30.16;33.12;96264.78;4974383;28;20084;-64
2022/05/12 09:01:02;;;;;;;6.25;2.10;;;32.90;29.10;;;30.11;33.13;96253.25;4991112;28;20048;-64
2022/05/12 09:04:02;;;;;;;7.15;1.80;;;32.70;29.50;;;30.17;32.79;96258.25;4958608;28;20038;-65
2022/05/12 09:06:55;;;;;;;4.78;2.38;;;32.90;29.10;;;30.17;32.26;96257.44;4969898;28;20469;-64
2022/05/12 09:10:10;;;;;;;4.50;1.98;;;32.60;28.40;;;30.13;32.60;96253.75;4991026;28;20469;-65
2022/05/12 09:12:49;;;;;;;5.28;3.28;;;32.80;28.90;;;30.07;31.96;96266.63;4989092;28;20041;-65
2022/05/12 09:15:33;;;;;;;4.28;2.45;;;32.70;28.30;;;29.88;32.27;96260.59;4971612;28;20492;-65
2022/05/12 09:18:22;;;;;;;6.55;2.13;;;32.30;29.10;;;29.96;32.46;96251.69;4965172;28;20040;-64
2022/05/12 09:20:48;;;;;;;5.18;3.25;;;32.70;29.10;;;30.04;32.66;96255.59;4974115;28;20474;-65
2022/05/12 09:23:14;;;;;;;5.25;3.67;;;32.90;28.70;;;30.10;33.06;96251.63;4982952;28;20052;-65
2022/05/12 09:25:42;;;;;;;5.68;2.90;;;33.00;28.80;;;30.30;33.11;96261.97;4963963;28;20030;-65
2022/05/12 09:28:33;;;;;;;6.50;2.42;;;33.50;28.80;;;30.54;31.99;96266.25;4956543;28;20022;-64
2022/05/12 09:31:17;;;;;;;4.20;2.00;;;33.80;27.80;;;30.58;32.31;96267.25;4957356;28;20036;-64
2022/05/12 09:33:44;;;;;;;4.90;2.13;;;33.60;28.10;;;30.54;32.49;96260.81;5006958;28;20084;-64
2022/05/12 09:36:36;;;;;;;6.05;2.20;;;33.60;27.50;;;30.63;31.62;96267.13;4966662;28;20038;-65
2022/05/12 09:39:03;;;;;;;6.22;2.35;;;33.20;27.70;;;30.62;31.94;96257.38;4984953;28;20104;-64
2022/05/12 09:41:42;;;;;;;4.00;2.22;;;33.60;27.30;;;30.57;31.72;96263.72;4972474;28;20139;-64
2022/05/12 09:44:24;;;;;;;5.10;2.33;;;33.50;28.30;;;30.67;31.94;96278.97;4956439;28;20116;-64
2022/05/12 09:47:03;;;;;;;4.93;2.20;;;33.70;28.40;;;30.76;31.72;96263.50;4971613;28;20026;-64
2022/05/12 09:49:34;;;;;;;6.22;2.50;;;33.30;28.40;;;30.74;31.50;96268.44;4988904;28;20092;-66
2022/05/12 09:52:35;;;;;;;4.78;2.58;;;33.60;27.90;;;30.90;31.96;96258.75;4972029;28;20466;-64
2022/05/12 09:55:18;;;;;;;6.68;2.20;;;33.80;27.90;;;31.15;32.06;96259.13;4989819;28;20056;-64
2022/05/12 09:58:00;;;;;;;4.53;2.33;;;34.60;27.70;;;31.20;31.05;96248.13;4988223;28;20068;-65
2022/05/12 10:00:43;;;;;;;4.70;2.80;;;34.20;27.20;;;31.42;31.43;96248.00;4972275;28;20045;-64
2022/05/12 10:09:24;;;;;;;4.47;2.17;;;36.50;24.90;;;32.62;30.58;96240.84;4959118;28;20081;-65
2022/05/12 10:12:06;;;;;;;7.70;2.25;;;36.70;25.30;;;32.89;30.01;96245.06;4968325;28;20117;-65
2022/05/12 10:14:42;;;;;;;5.95;2.95;;;36.80;24.80;;;33.17;29.12;96234.47;4960270;28;20038;-65
2022/05/12 10:17:39;;;;;;;6.03;4.50;;;37.10;24.50;;;33.28;29.60;96241.16;4971752;28;20061;-65
2022/05/12 10:20:13;;;;;;;5.35;2.17;;;37.10;24.50;;;33.40;29.19;96243.97;4976303;28;20044;-64
2022/05/12 10:22:47;;;;;;;4.55;2.45;;;37.00;24.10;;;33.74;28.50;96248.34;4971971;28;20038;-64
2022/05/12 10:25:55;;;;;;;3.90;2.67;;;38.00;23.70;;;34.13;28.52;96248.97;4970270;28;20033;-64
2022/05/12 10:28:44;;;;;;;4.85;2.25;;;38.10;23.30;;;34.30;27.66;96245.28;4972837;28;20152;-64
2022/05/12 10:31:22;;;;;;;4.22;1.90;;;37.90;23.40;;;34.42;27.78;96237.16;4966766;28;20030;-65
2022/05/12 10:34:14;;;;;;;6.05;2.55;;;37.40;24.30;;;34.13;27.97;96232.59;5005368;28;20165;-64
2022/05/12 10:36:51;;;;;;;9.00;2.22;;;36.60;24.30;;;34.26;27.96;96242.41;4972230;28;20465;-65
2022/05/12 10:39:26;;;;;;;5.32;2.58;;;37.70;23.90;;;34.70;28.26;96240.00;4968233;28;20042;-64
2022/05/12 10:42:22;;;;;;;6.20;2.70;;;38.80;23.70;;;35.15;27.68;96228.97;4952196;28;20046;-64
2022/05/12 10:45:16;;;;;;;6.03;2.40;;;39.30;23.10;;;35.33;26.80;96232.25;4945023;28;20030;-64